createdAt,value
2023-05-22T00:02:18.144Z,61.16
2023-05-22T00:04:47.123Z,61.30
2023-05-22T00:07:15.821Z,61.46
2023-05-22T00:09:44.181Z,61.92
2023-05-22T00:12:12.586Z,62.65
2023-05-22T00:14:40.961Z,62.47
2023-05-22T00:17:10.505Z,62.29
2023-05-22T00:19:38.977Z,63.15
2023-05-22T00:22:07.479Z,63.18
2023-05-22T00:24:36.333Z,63.49
2023-05-22T00:27:05.253Z,63.81
2023-05-22T00:29:33.665Z,63.40
2023-05-22T00:32:02.059Z,63.66
2023-05-22T00:34:30.435Z,63.78
2023-05-22T00:36:58.927Z,63.94
2023-05-22T00:39:27.444Z,64.63
2023-05-22T00:41:55.853Z,64.91
2023-05-22T00:44:24.552Z,65.47
2023-05-22T00:46:53.135Z,66.12
2023-05-22T00:49:21.545Z,65.38
2023-05-22T00:51:50.266Z,65.49
2023-05-22T00:54:18.827Z,65.36
2023-05-22T00:56:47.923Z,65.84
2023-05-22T00:59:17.632Z,65.79
2023-05-22T01:01:46.392Z,65.76
2023-05-22T01:04:15.756Z,66.00
2023-05-22T01:06:47.930Z,65.63
2023-05-22T01:09:16.410Z,65.69
2023-05-22T01:12:16.327Z,66.04
2023-05-22T01:15:00.506Z,65.95
2023-05-22T01:17:56.017Z,65.49
2023-05-22T01:20:49.186Z,65.91
2023-05-22T01:23:49.148Z,66.83
2023-05-22T01:26:23.576Z,67.08
2023-05-22T01:29:13.687Z,67.54
2023-05-22T01:31:44.160Z,68.17
2023-05-22T01:34:14.146Z,68.67
2023-05-22T01:36:47.362Z,69.22
2023-05-22T01:39:16.549Z,69.22
2023-05-22T01:41:45.886Z,69.22
2023-05-22T01:44:15.114Z,69.81
2023-05-22T01:46:43.505Z,69.77
2023-05-22T01:49:11.908Z,69.40
2023-05-22T01:51:54.647Z,69.65
2023-05-22T01:54:47.038Z,69.62
2023-05-22T01:57:51.169Z,69.60
2023-05-22T02:00:22.660Z,69.91
2023-05-22T02:03:16.858Z,70.23
2023-05-22T02:05:47.347Z,70.48
2023-05-22T02:08:17.010Z,70.98
2023-05-22T02:10:46.809Z,71.73
2023-05-22T02:13:15.336Z,72.19
2023-05-22T02:15:46.786Z,72.39
2023-05-22T02:18:15.259Z,72.55
2023-05-22T02:20:44.166Z,72.56
2023-05-22T02:23:12.681Z,72.99
2023-05-22T02:25:41.459Z,73.39
2023-05-22T02:28:09.934Z,74.03
2023-05-22T02:30:38.798Z,74.46
2023-05-22T02:33:09.687Z,74.55
2023-05-22T02:35:37.905Z,74.92
2023-05-22T02:38:06.992Z,75.25
2023-05-22T02:40:35.452Z,75.53
2023-05-22T02:43:04.038Z,75.86
2023-05-22T02:45:33.235Z,76.02
2023-05-22T02:48:03.937Z,76.30
2023-05-22T02:50:32.414Z,76.52
2023-05-22T02:53:00.987Z,76.53
2023-05-22T02:55:29.481Z,76.54
2023-05-22T02:57:57.986Z,77.28
2023-05-22T03:00:26.509Z,77.86
2023-05-22T03:02:55.016Z,78.46
2023-05-22T03:05:23.511Z,78.26
2023-05-22T03:07:53.061Z,78.70
2023-05-22T03:10:21.555Z,78.45
2023-05-22T03:12:52.086Z,78.42
2023-05-22T03:15:20.966Z,78.65
2023-05-22T03:17:49.407Z,78.96
2023-05-22T03:20:18.207Z,78.86
2023-05-22T03:22:46.625Z,78.97
2023-05-22T03:25:15.043Z,79.37
2023-05-22T03:27:43.614Z,79.58
2023-05-22T03:30:12.783Z,79.45
2023-05-22T03:32:41.298Z,79.88
2023-05-22T03:35:10.209Z,80.45
2023-05-22T03:37:38.528Z,80.70
2023-05-22T03:40:08.049Z,81.02
2023-05-22T03:42:36.387Z,81.22
2023-05-22T03:45:05.389Z,80.89
2023-05-22T03:47:33.816Z,81.25
2023-05-22T03:50:02.166Z,80.62
2023-05-22T03:52:30.675Z,80.10
2023-05-22T03:54:59.241Z,80.11
2023-05-22T03:57:27.705Z,79.82
2023-05-22T03:59:56.077Z,79.22
2023-05-22T04:02:26.583Z,78.69
2023-05-22T04:04:55.189Z,77.93
2023-05-22T04:07:23.596Z,77.35
2023-05-22T04:09:51.986Z,76.88
2023-05-22T04:12:20.369Z,76.61
2023-05-22T04:14:48.602Z,76.03
2023-05-22T04:17:16.997Z,75.77
2023-05-22T04:19:45.333Z,75.52
2023-05-22T04:22:13.668Z,75.28
2023-05-22T04:24:42.011Z,75.11
2023-05-22T04:27:10.501Z,74.79
2023-05-22T04:29:41.870Z,74.59
2023-05-22T04:32:10.988Z,74.52
2023-05-22T04:34:39.344Z,74.15
2023-05-22T04:37:07.710Z,73.80
2023-05-22T04:39:36.263Z,73.60
2023-05-22T04:42:06.432Z,73.21
2023-05-22T04:44:35.000Z,72.70
2023-05-22T04:47:06.065Z,72.69
2023-05-22T04:49:36.160Z,72.37
2023-05-22T04:52:06.447Z,72.09
2023-05-22T04:54:34.802Z,72.02
2023-05-22T04:57:05.113Z,71.84
2023-05-22T04:59:40.282Z,71.39
2023-05-22T05:02:08.734Z,71.21
2023-05-22T05:04:37.474Z,71.13
2023-05-22T05:07:06.538Z,70.79
2023-05-22T05:09:35.017Z,70.38
2023-05-22T05:15:30.610Z,69.64
2023-05-22T05:19:12.028Z,69.42
2023-05-22T05:21:55.571Z,69.08
2023-05-22T05:24:56.048Z,68.57
2023-05-22T05:28:33.326Z,67.96
2023-05-22T05:32:01.440Z,67.53
2023-05-22T05:34:30.517Z,67.21
2023-05-22T05:37:56.734Z,66.93
2023-05-22T05:40:39.709Z,67.09
2023-05-22T05:47:20.535Z,66.09
2023-05-22T05:50:48.891Z,65.37
2023-05-22T05:54:15.500Z,64.91
2023-05-22T06:01:45.636Z,63.60
2023-05-22T06:04:36.130Z,61.00
2023-05-22T06:07:07.124Z,60.42
2023-05-22T06:10:31.077Z,59.57
2023-05-22T06:13:41.697Z,59.62
2023-05-22T06:20:18.562Z,59.50
2023-05-22T06:23:59.504Z,59.44
2023-05-22T06:27:27.207Z,57.76
2023-05-22T06:31:37.846Z,58.03
2023-05-22T06:37:54.343Z,57.44
2023-05-22T06:51:05.654Z,56.55
2023-05-22T06:54:32.035Z,56.31
2023-05-22T06:57:57.080Z,55.83
2023-05-22T07:01:14.410Z,54.56
2023-05-22T07:07:36.685Z,53.26
2023-05-22T07:18:40.833Z,52.58
2023-05-22T07:26:06.846Z,51.91
2023-05-22T07:28:54.473Z,51.41
2023-05-22T07:41:16.903Z,47.31
2023-05-22T07:44:22.456Z,46.24
2023-05-22T07:50:55.554Z,44.25
2023-05-22T07:56:42.345Z,42.05
2023-05-22T07:59:18.929Z,42.76
2023-05-22T08:02:42.710Z,43.07
2023-05-22T08:06:02.600Z,41.34
2023-05-22T08:08:39.758Z,41.70
2023-05-22T08:15:27.820Z,43.10
2023-05-22T08:18:38.869Z,42.95
2023-05-22T08:24:22.724Z,41.43
2023-05-22T08:27:12.824Z,41.53
2023-05-22T08:37:04.389Z,41.95
2023-05-22T08:39:54.381Z,41.61
2023-05-22T08:56:57.677Z,40.31
2023-05-22T09:00:16.112Z,39.42
2023-05-22T09:03:49.089Z,39.89
2023-05-22T09:07:02.296Z,38.63
2023-05-22T09:09:45.125Z,37.24
2023-05-22T09:12:14.680Z,37.45
2023-05-22T09:14:45.314Z,37.84
2023-05-22T09:17:17.653Z,38.98
2023-05-22T09:19:46.722Z,38.59
2023-05-22T09:22:15.316Z,37.98
2023-05-22T09:24:46.488Z,37.12
2023-05-22T09:27:28.722Z,36.89
2023-05-22T09:30:09.544Z,36.86
2023-05-22T09:33:14.327Z,37.19
2023-05-22T09:35:50.282Z,37.20
2023-05-22T09:38:30.586Z,36.99
2023-05-22T09:42:05.356Z,34.96
2023-05-22T09:45:09.457Z,35.78
2023-05-22T09:49:05.528Z,36.15
2023-05-22T09:51:54.823Z,35.87
2023-05-22T09:55:12.636Z,35.41
2023-05-22T09:59:20.360Z,35.77
2023-05-22T10:02:07.253Z,36.68
2023-05-22T10:05:37.457Z,36.05
2023-05-22T10:15:32.462Z,37.00
2023-05-22T10:18:33.642Z,37.58
2023-05-22T10:21:06.474Z,37.16
2023-05-22T10:24:27.052Z,37.22
2023-05-22T10:28:02.750Z,37.24
2023-05-22T10:30:49.112Z,36.16
2023-05-22T10:34:01.432Z,36.26
2023-05-22T10:37:17.293Z,35.95
2023-05-22T10:40:19.840Z,34.59
2023-05-22T10:43:19.189Z,34.71
2023-05-22T10:46:19.393Z,34.89
2023-05-22T10:49:05.989Z,35.00
2023-05-22T10:52:09.128Z,35.03
2023-05-22T10:54:45.789Z,35.67
2023-05-22T10:57:16.700Z,35.04
2023-05-22T10:59:51.732Z,35.50
2023-05-22T11:02:22.452Z,35.71
2023-05-22T11:04:51.325Z,34.00
2023-05-22T11:07:19.957Z,33.06
2023-05-22T11:09:48.973Z,33.58
2023-05-22T11:12:19.758Z,33.53
2023-05-22T11:15:11.323Z,34.69
2023-05-22T11:17:40.205Z,33.08
2023-05-22T11:20:26.113Z,33.73
2023-05-22T11:23:04.564Z,33.62
2023-05-22T11:25:37.969Z,32.69
2023-05-22T11:28:08.201Z,31.60
2023-05-22T11:30:38.575Z,31.41
2023-05-22T11:33:07.454Z,31.17
2023-05-22T11:35:36.227Z,30.42
2023-05-22T11:38:08.340Z,30.98
2023-05-22T11:40:36.899Z,30.49
2023-05-22T11:43:05.534Z,30.65
2023-05-22T11:45:38.072Z,30.32
2023-05-22T11:48:09.233Z,30.75
2023-05-22T11:50:43.960Z,31.13
2023-05-22T11:53:12.977Z,31.33
2023-05-22T11:55:43.514Z,31.21
2023-05-22T11:58:12.054Z,31.36
2023-05-22T12:00:40.775Z,32.23
2023-05-22T12:06:09.758Z,30.15
2023-05-22T12:09:30.708Z,30.87
2023-05-22T12:11:59.350Z,30.37
2023-05-22T12:14:33.770Z,30.39
2023-05-22T12:17:12.836Z,31.04
2023-05-22T12:19:42.352Z,31.79
2023-05-22T12:22:11.770Z,31.67
2023-05-22T12:24:47.726Z,31.03
2023-05-22T12:27:16.197Z,29.90
2023-05-22T12:29:44.683Z,30.33
2023-05-22T12:32:14.036Z,31.33
2023-05-22T12:34:45.218Z,32.53
2023-05-22T12:37:25.452Z,32.20
2023-05-22T12:39:58.832Z,33.03
2023-05-22T12:42:28.362Z,32.31
2023-05-22T12:44:58.428Z,32.85
2023-05-22T12:47:27.285Z,31.92
2023-05-22T12:49:56.371Z,31.73
2023-05-22T12:52:24.979Z,32.75
2023-05-22T12:54:53.554Z,33.72
2023-05-22T12:57:22.191Z,31.86
2023-05-22T12:59:50.749Z,30.53
2023-05-22T13:02:19.871Z,30.57
2023-05-22T13:04:48.481Z,31.21
2023-05-22T13:07:17.064Z,30.89
2023-05-22T13:09:45.503Z,31.43
2023-05-22T13:12:14.163Z,31.89
2023-05-22T13:14:42.608Z,30.75
2023-05-22T13:17:11.470Z,31.32
2023-05-22T13:19:39.985Z,31.46
2023-05-22T13:22:09.274Z,30.98
2023-05-22T13:24:37.737Z,31.04
2023-05-22T13:27:06.476Z,30.90
2023-05-22T13:29:34.985Z,30.91
2023-05-22T13:32:03.510Z,31.35
2023-05-22T13:34:32.041Z,32.06
2023-05-22T13:37:00.677Z,31.92
2023-05-22T13:39:29.304Z,31.02
2023-05-22T13:41:57.988Z,31.27
2023-05-22T13:44:27.089Z,31.61
2023-05-22T13:46:55.929Z,32.32
2023-05-22T13:49:24.478Z,31.73
2023-05-22T13:51:53.504Z,31.54
2023-05-22T13:54:22.128Z,31.43
2023-05-22T13:56:50.559Z,30.56
2023-05-22T13:59:18.994Z,30.82
2023-05-22T14:01:48.707Z,32.05
2023-05-22T14:04:17.210Z,32.11
2023-05-22T14:06:45.640Z,31.79
2023-05-22T14:09:14.069Z,31.06
2023-05-22T14:11:42.569Z,30.46
2023-05-22T14:14:11.259Z,30.62
2023-05-22T14:16:42.765Z,31.49
2023-05-22T14:19:11.266Z,31.95
2023-05-22T14:21:39.731Z,30.94
2023-05-22T14:24:08.242Z,31.00
2023-05-22T14:26:36.608Z,31.77
2023-05-22T14:29:05.312Z,32.03
2023-05-22T14:31:45.231Z,32.00
2023-05-22T14:34:15.946Z,31.20
2023-05-22T14:36:44.467Z,31.99
2023-05-22T14:39:12.912Z,31.67
2023-05-22T14:41:41.471Z,32.19
2023-05-22T14:44:10.107Z,32.03
2023-05-22T14:46:38.463Z,32.43
2023-05-22T14:49:07.173Z,32.40
2023-05-22T14:51:35.610Z,32.63
2023-05-22T14:54:05.838Z,32.74
2023-05-22T14:56:34.409Z,32.98
2023-05-22T14:59:02.980Z,32.59
2023-05-22T15:01:31.586Z,32.49
2023-05-22T15:04:00.102Z,32.77
2023-05-22T15:06:29.695Z,33.01
2023-05-22T15:08:58.301Z,32.66
2023-05-22T15:11:27.421Z,33.62
2023-05-22T15:13:55.916Z,33.58
2023-05-22T15:16:26.047Z,33.53
2023-05-22T15:18:55.537Z,33.57
2023-05-22T15:21:24.500Z,33.35
2023-05-22T15:23:52.901Z,33.77
2023-05-22T15:26:21.900Z,33.82
2023-05-22T15:28:50.467Z,33.87
2023-05-22T15:31:18.980Z,33.38
2023-05-22T15:33:47.555Z,33.66
2023-05-22T15:36:16.269Z,34.25
2023-05-22T15:38:44.797Z,33.78
2023-05-22T15:41:13.919Z,33.94
2023-05-22T15:43:42.519Z,34.18
2023-05-22T15:46:12.809Z,34.47
2023-05-22T15:48:41.131Z,34.86
2023-05-22T15:51:10.061Z,34.52
2023-05-22T15:53:39.592Z,34.50
2023-05-22T15:56:09.180Z,35.06
2023-05-22T15:58:37.603Z,35.07
2023-05-22T16:01:08.079Z,34.91
2023-05-22T16:03:36.377Z,34.91
2023-05-22T16:06:05.065Z,35.33
2023-05-22T16:08:33.668Z,35.86
2023-05-22T16:11:02.159Z,35.69
2023-05-22T16:13:30.987Z,35.91
2023-05-22T16:15:59.608Z,35.51
2023-05-22T16:18:28.188Z,35.78
2023-05-22T16:20:56.606Z,35.58
2023-05-22T16:23:25.256Z,35.79
2023-05-22T16:25:53.770Z,36.03
2023-05-22T16:28:22.323Z,35.72
2023-05-22T16:30:50.793Z,36.01
2023-05-22T16:33:19.183Z,35.85
2023-05-22T16:35:47.683Z,35.91
2023-05-22T16:38:16.236Z,35.71
2023-05-22T16:40:44.730Z,35.89
2023-05-22T16:43:14.269Z,35.90
2023-05-22T16:45:46.995Z,36.02
2023-05-22T16:48:15.485Z,36.28
2023-05-22T16:50:44.999Z,36.70
2023-05-22T16:53:16.943Z,36.91
2023-05-22T16:55:45.781Z,36.93
2023-05-22T16:58:14.532Z,37.31
2023-05-22T17:00:43.273Z,37.23
2023-05-22T17:03:12.305Z,37.31
2023-05-22T17:05:41.241Z,37.29
2023-05-22T17:08:10.312Z,37.59
2023-05-22T17:10:38.888Z,37.75
2023-05-22T17:13:07.982Z,37.79
2023-05-22T17:15:36.402Z,37.86
2023-05-22T17:18:05.080Z,38.06
2023-05-22T17:20:34.396Z,38.51
2023-05-22T17:23:02.823Z,38.44
2023-05-22T17:37:10.985Z,39.09
2023-05-22T17:39:39.575Z,39.26
2023-05-22T17:42:08.104Z,39.76
2023-05-22T17:44:38.693Z,39.68
2023-05-22T17:47:07.635Z,40.15
2023-05-22T17:49:37.929Z,40.52
2023-05-22T17:52:08.904Z,40.63
2023-05-22T17:54:37.743Z,40.94
2023-05-22T17:57:06.491Z,41.30
2023-05-22T17:59:34.932Z,41.62
2023-05-22T18:02:03.364Z,41.95
2023-05-22T18:04:31.825Z,42.54
2023-05-22T18:07:00.167Z,42.89
2023-05-22T18:09:28.574Z,43.35
2023-05-22T18:12:03.947Z,43.60
2023-05-22T18:14:32.868Z,43.69
2023-05-22T18:17:01.263Z,44.02
2023-05-22T18:19:29.792Z,44.41
2023-05-22T18:21:58.207Z,44.72
2023-05-22T18:24:28.495Z,45.14
2023-05-22T18:26:57.076Z,45.43
2023-05-22T18:29:25.451Z,45.52
2023-05-22T18:31:54.131Z,46.02
2023-05-22T18:34:22.744Z,46.19
2023-05-22T18:36:52.981Z,46.34
2023-05-22T18:39:21.820Z,46.89
2023-05-22T18:41:50.858Z,47.02
2023-05-22T18:44:19.245Z,47.21
2023-05-22T18:46:47.917Z,48.04
2023-05-22T18:49:16.394Z,48.38
2023-05-22T18:52:02.444Z,48.64
2023-05-22T18:57:52.740Z,49.68
2023-05-22T19:00:21.255Z,50.23
2023-05-22T19:03:31.082Z,50.77
2023-05-22T19:07:03.503Z,51.50
2023-05-22T19:09:39.663Z,52.51
2023-05-22T19:12:08.213Z,53.55
2023-05-22T19:14:36.991Z,53.53
2023-05-22T19:17:08.030Z,54.04
2023-05-22T19:19:36.851Z,54.15
2023-05-22T19:22:06.998Z,54.74
2023-05-22T19:24:38.702Z,55.19
2023-05-22T19:27:07.530Z,55.48
2023-05-22T19:29:36.211Z,55.96
2023-05-22T19:32:04.692Z,55.95
2023-05-22T19:34:33.408Z,56.12
2023-05-22T19:37:01.920Z,56.61
2023-05-22T19:39:30.192Z,56.88
2023-05-22T19:41:58.544Z,57.37
2023-05-22T19:44:26.971Z,57.78
2023-05-22T19:46:56.986Z,58.48
2023-05-22T19:49:25.477Z,59.11
2023-05-22T19:51:55.916Z,59.15
2023-05-22T19:54:25.135Z,59.65
2023-05-22T19:56:53.797Z,59.88
2023-05-22T19:59:22.404Z,60.38
2023-05-22T20:01:53.894Z,60.82
2023-05-22T20:04:23.544Z,61.36
2023-05-22T20:06:52.144Z,61.68
2023-05-22T20:09:20.953Z,62.34
2023-05-22T20:11:50.103Z,62.38
2023-05-22T20:14:18.742Z,62.77
2023-05-22T20:16:50.649Z,63.46
2023-05-22T20:19:20.511Z,63.67
2023-05-22T20:21:52.342Z,63.81
2023-05-22T20:24:21.447Z,64.25
2023-05-22T20:26:49.965Z,64.43
2023-05-22T20:29:18.921Z,64.44
2023-05-22T20:31:47.703Z,65.21
2023-05-22T20:34:19.577Z,65.82
2023-05-22T20:36:48.817Z,66.30
2023-05-22T20:39:18.359Z,66.47
2023-05-22T20:41:50.161Z,66.30
2023-05-22T20:44:23.829Z,66.24
2023-05-22T20:46:53.829Z,66.73
2023-05-22T20:49:22.916Z,66.89
2023-05-22T20:51:54.549Z,66.34
2023-05-22T20:54:23.149Z,66.67
2023-05-22T20:56:53.258Z,67.21
2023-05-22T20:59:23.324Z,67.22
2023-05-22T21:01:52.762Z,67.55
2023-05-22T21:04:22.155Z,68.26
2023-05-22T21:06:53.037Z,68.47
2023-05-22T21:09:24.816Z,68.01
2023-05-22T21:11:53.914Z,67.45
2023-05-22T21:14:26.616Z,66.99
2023-05-22T21:16:56.113Z,67.01
2023-05-22T21:19:26.270Z,66.21
2023-05-22T21:21:55.020Z,65.52
2023-05-22T21:24:23.521Z,65.27
2023-05-22T21:26:52.310Z,65.28
2023-05-22T21:29:21.499Z,64.91
2023-05-22T21:31:50.472Z,64.39
2023-05-22T21:34:19.025Z,63.78
2023-05-22T21:36:47.460Z,63.63
2023-05-22T21:39:16.945Z,62.72
2023-05-22T21:41:45.680Z,62.39
2023-05-22T21:44:14.693Z,62.24
2023-05-22T21:46:46.483Z,62.24
2023-05-22T21:49:21.604Z,62.34
2023-05-22T21:51:52.715Z,62.50
2023-05-22T21:54:22.645Z,62.13
2023-05-22T21:56:51.073Z,61.84
2023-05-22T21:59:19.515Z,61.69
2023-05-22T22:01:47.925Z,61.73
2023-05-22T22:04:16.421Z,61.90
2023-05-22T22:06:44.858Z,61.53
2023-05-22T22:09:13.390Z,61.36
2023-05-22T22:11:41.749Z,61.34
2023-05-22T22:14:10.351Z,61.34
2023-05-22T22:16:40.853Z,61.49
2023-05-22T22:19:09.705Z,61.49
2023-05-22T22:21:38.181Z,61.69
2023-05-22T22:24:06.890Z,61.72
2023-05-22T22:26:35.912Z,61.96
2023-05-22T22:29:04.420Z,62.21
2023-05-22T22:31:32.824Z,62.14
2023-05-22T22:34:01.455Z,62.33
2023-05-22T22:40:42.521Z,63.36
2023-05-22T22:43:11.295Z,63.91
2023-05-22T22:45:42.933Z,64.31
2023-05-22T22:48:11.507Z,64.10
2023-05-22T22:50:40.436Z,64.08
2023-05-22T22:53:08.993Z,64.04
2023-05-22T22:55:37.757Z,64.11
2023-05-22T22:58:07.056Z,63.88
2023-05-22T23:00:36.949Z,64.26
2023-05-22T23:03:05.511Z,64.42
2023-05-22T23:05:34.144Z,64.64
2023-05-22T23:08:02.589Z,64.53
2023-05-22T23:10:30.958Z,64.49
2023-05-22T23:12:59.517Z,64.34
2023-05-22T23:15:28.172Z,64.85
2023-05-22T23:17:56.771Z,64.98
2023-05-22T23:20:25.144Z,65.01
2023-05-22T23:22:53.652Z,64.51
2023-05-22T23:25:22.158Z,65.06
2023-05-22T23:27:51.023Z,65.15
2023-05-22T23:30:19.594Z,64.96
2023-05-22T23:32:48.035Z,65.19
2023-05-22T23:35:16.573Z,64.87
2023-05-22T23:37:44.916Z,64.64
2023-05-22T23:40:13.439Z,64.55
2023-05-22T23:42:41.863Z,64.71
2023-05-22T23:49:28.176Z,64.43
2023-05-22T23:51:56.548Z,64.70
2023-05-22T23:54:25.017Z,65.07
2023-05-22T23:56:53.451Z,64.89
2023-05-22T23:59:21.909Z,65.01
